Time;durP1;ratioP1;P1;durP2;ratioP2;P2;SDS_P1;SDS_P2;PMS_P1;PMS_P2;Temp;Humidity;BMP_temperature;BMP_pressure;BME280_temperature;BME280_humidity;BME280_pressure;Samples;Min_cycle;Max_cycle;Signal;HPM_P1;HPM_P2
2022/09/02 00:02:49;;;;;;;0.98;0.50;;;;;;;15.03;48.39;100771.06;10161671;29;20194;-80
2022/09/02 00:07:56;;;;;;;2.53;0.57;;;;;;;15.00;48.35;100765.91;10160233;29;20052;-80
2022/09/02 00:12:59;;;;;;;1.15;0.60;;;;;;;14.93;48.94;100762.09;10149966;29;20702;-80
2022/09/02 00:18:03;;;;;;;2.55;0.60;;;;;;;14.87;48.95;100759.97;10156424;29;20128;-79
2022/09/02 00:23:08;;;;;;;1.67;0.82;;;;;;;14.85;48.79;100764.66;10159738;29;20056;-78
2022/09/02 00:28:12;;;;;;;2.03;0.70;;;;;;;14.74;49.08;100762.94;10176839;29;20119;-78
2022/09/02 00:33:17;;;;;;;0.73;0.55;;;;;;;14.60;50.05;100756.13;10160479;29;20079;-79
2022/09/02 00:38:21;;;;;;;0.65;0.63;;;;;;;14.47;50.50;100756.38;10137532;29;20075;-79
2022/09/02 00:43:37;;;;;;;0.90;0.57;;;;;;;14.33;50.81;100754.91;10156555;29;20051;-80
2022/09/02 00:48:47;;;;;;;2.53;0.70;;;;;;;14.31;50.90;100751.47;10150242;29;20052;-78
2022/09/02 00:53:51;;;;;;;3.35;0.65;;;;;;;14.30;50.86;100741.69;10141067;29;20086;-80
2022/09/02 00:58:56;;;;;;;0.63;0.63;;;;;;;14.26;50.94;100740.25;10131445;29;20062;-80
2022/09/02 01:03:59;;;;;;;3.95;0.50;;;;;;;14.14;50.83;100744.91;10150791;29;20058;-80
2022/09/02 01:09:08;;;;;;;1.55;0.77;;;;;;;14.20;50.89;100742.66;10140467;29;20067;-80
2022/09/02 01:14:12;;;;;;;1.05;0.57;;;;;;;14.14;50.55;100747.63;10145818;29;20056;-79
2022/09/02 01:19:21;;;;;;;0.50;0.40;;;;;;;14.13;50.74;100740.50;10141983;29;20429;-78
2022/09/02 01:24:29;;;;;;;1.52;0.60;;;;;;;14.05;50.67;100737.66;10143550;29;20083;-80
2022/09/02 01:29:32;;;;;;;4.90;0.82;;;;;;;14.10;50.64;100729.13;10162642;29;20059;-81
2022/09/02 01:34:36;;;;;;;1.92;0.65;;;;;;;14.09;50.56;100733.66;10166322;29;20048;-80
2022/09/02 01:39:41;;;;;;;1.15;0.60;;;;;;;14.07;50.90;100726.69;10138596;29;20067;-79
2022/09/02 01:44:45;;;;;;;1.20;0.80;;;;;;;14.05;51.16;100728.69;10133056;29;20059;-80
2022/09/02 01:49:50;;;;;;;3.80;0.63;;;;;;;13.97;51.04;100725.84;10129244;29;20458;-80
2022/09/02 01:54:55;;;;;;;2.85;0.80;;;;;;;13.91;51.47;100725.38;10155466;29;20052;-80
2022/09/02 02:00:00;;;;;;;2.50;0.75;;;;;;;13.89;51.44;100721.13;10157827;29;20058;-79
2022/09/02 02:05:04;;;;;;;1.13;0.68;;;;;;;13.80;51.71;100712.00;10164620;29;20134;-79
2022/09/02 02:10:09;;;;;;;1.20;0.52;;;;;;;13.75;52.01;100708.84;10142535;29;20063;-80
2022/09/02 02:15:16;;;;;;;1.73;0.60;;;;;;;13.73;52.04;100707.28;10155146;29;20059;-79
2022/09/02 02:20:20;;;;;;;0.70;0.60;;;;;;;13.69;52.24;100699.47;10157086;29;20051;-80
2022/09/02 02:25:25;;;;;;;1.15;0.80;;;;;;;13.63;52.40;100700.00;10167407;29;20513;-79
2022/09/02 02:30:29;;;;;;;1.38;0.70;;;;;;;13.61;52.51;100693.03;10163236;29;20103;-77
2022/09/02 02:35:33;;;;;;;1.00;0.85;;;;;;;13.44;52.80;100695.41;10156923;29;20052;-80
2022/09/02 02:40:38;;;;;;;2.08;0.70;;;;;;;13.33;53.19;100692.75;10152470;29;20418;-80
2022/09/02 02:45:41;;;;;;;1.13;0.80;;;;;;;13.35;53.67;100695.31;10140538;29;20052;-79
2022/09/02 02:50:45;;;;;;;2.05;1.13;;;;;;;13.26;54.09;100687.03;10144805;29;20548;-80
2022/09/02 02:55:49;;;;;;;2.20;0.82;;;;;;;13.08;54.49;100690.47;10150795;29;20510;-79
2022/09/02 03:00:53;;;;;;;2.33;0.70;;;;;;;13.04;54.50;100685.34;10148782;29;20066;-78
2022/09/02 03:05:56;;;;;;;1.20;0.68;;;;;;;12.93;54.91;100689.97;10146449;29;20063;-80
2022/09/02 03:11:04;;;;;;;1.60;0.60;;;;;;;12.72;55.19;100682.72;10145051;29;20048;-79
2022/09/02 03:16:09;;;;;;;2.25;0.77;;;;;;;12.74;55.49;100683.44;10140634;29;20048;-80
2022/09/02 03:21:14;;;;;;;1.52;0.68;;;;;;;12.59;55.76;100688.31;10139709;29;20056;-79
2022/09/02 03:26:23;;;;;;;3.42;0.82;;;;;;;12.64;55.84;100681.66;10157040;29;20056;-80
2022/09/02 03:31:28;;;;;;;0.80;0.80;;;;;;;12.56;56.09;100685.00;10158537;29;20437;-80
2022/09/02 03:36:35;;;;;;;1.02;0.90;;;;;;;12.51;56.07;100685.41;10152611;29;20047;-79
2022/09/02 03:41:41;;;;;;;1.02;0.80;;;;;;;12.49;56.55;100683.84;10142866;29;20048;-80
2022/09/02 03:46:45;;;;;;;1.13;0.70;;;;;;;12.48;56.47;100674.03;10143136;29;20423;-79
2022/09/02 03:51:48;;;;;;;3.53;1.42;;;;;;;12.46;56.74;100676.03;10148757;29;20052;-80
2022/09/02 03:56:53;;;;;;;2.15;0.80;;;;;;;12.48;56.55;100672.22;10140133;29;20044;-80
2022/09/02 04:01:55;;;;;;;2.03;0.73;;;;;;;12.44;56.80;100669.91;10136638;29;21280;-80
2022/09/02 04:06:59;;;;;;;2.33;0.85;;;;;;;12.39;57.05;100675.66;10135075;29;20153;-79
2022/09/02 04:12:05;;;;;;;1.25;0.88;;;;;;;12.36;57.33;100668.69;10152419;29;20055;-78
2022/09/02 04:17:09;;;;;;;2.50;0.77;;;;;;;12.33;57.35;100673.50;10125650;29;20516;-80
2022/09/02 04:22:12;;;;;;;2.00;0.90;;;;;;;12.16;57.82;100675.72;10151988;29;20221;-80
2022/09/02 04:27:17;;;;;;;1.55;1.02;;;;;;;12.09;58.04;100670.97;10151929;29;20051;-80
2022/09/02 04:32:21;;;;;;;3.35;0.80;;;;;;;11.92;58.33;100665.13;10138289;29;20139;-79
2022/09/02 04:37:26;;;;;;;0.60;0.60;;;;;;;11.79;58.87;100664.44;10134523;29;20517;-79
2022/09/02 04:42:31;;;;;;;4.03;1.08;;;;;;;11.82;58.81;100668.72;10162658;29;20067;-77
2022/09/02 04:47:34;;;;;;;1.25;0.98;;;;;;;11.83;59.12;100673.13;10161018;29;20583;-79
2022/09/02 04:52:38;;;;;;;3.30;1.10;;;;;;;11.84;59.18;100669.44;10132457;29;20059;-81
2022/09/02 04:57:42;;;;;;;2.38;1.10;;;;;;;11.76;59.30;100670.06;10140391;29;20055;-80
2022/09/02 05:02:46;;;;;;;3.45;1.13;;;;;;;11.78;59.46;100670.81;10131153;29;20084;-80
2022/09/02 05:07:50;;;;;;;1.33;1.08;;;;;;;11.73;59.62;100670.31;10146585;29;20051;-80
2022/09/02 05:12:54;;;;;;;1.55;1.30;;;;;;;11.77;59.81;100666.41;10162631;29;20091;-80
2022/09/02 05:17:58;;;;;;;2.75;1.42;;;;;;;11.80;59.86;100666.16;10132204;29;21102;-80
2022/09/02 05:23:01;;;;;;;4.65;0.55;;;;;;;11.97;60.54;100659.38;10150591;29;20048;-79
2022/09/02 05:28:07;;;;;;;2.95;1.05;;;;;;;12.25;59.37;100652.53;10136153;29;20044;-79
2022/09/02 05:33:11;;;;;;;3.92;1.50;;;;;;;12.53;58.59;100653.81;10136937;29;20056;-79
2022/09/02 05:38:17;;;;;;;3.72;1.38;;;;;;;12.77;58.04;100639.22;10151369;29;20532;-81
2022/09/02 05:43:23;;;;;;;2.72;1.80;;;;;;;12.87;58.04;100650.91;10153765;29;20059;-79
2022/09/02 05:53:47;;;;;;;2.13;1.10;;;;;;;13.42;56.70;100656.03;10132600;29;20054;-77
2022/09/02 05:58:54;;;;;;;1.73;1.02;;;;;;;13.65;56.23;100654.81;10141276;29;20062;-81
2022/09/02 06:03:57;;;;;;;1.85;0.90;;;;;;;13.72;56.20;100652.44;10182636;29;20044;-78
2022/09/02 06:09:03;;;;;;;1.33;1.00;;;;;;;13.88;56.20;100651.91;10169231;29;20051;-81
2022/09/02 06:14:08;;;;;;;4.10;1.20;;;;;;;14.18;55.43;100648.25;10151154;29;20080;-80
2022/09/02 06:19:13;;;;;;;5.47;1.88;;;;;;;14.53;55.19;100649.53;10149572;29;20043;-80
2022/09/02 06:24:23;;;;;;;5.43;1.92;;;;;;;14.88;54.78;100643.50;10165446;29;20131;-80
2022/09/02 06:29:28;;;;;;;3.85;1.83;;;;;;;15.10;53.94;100641.44;10159517;29;20051;-80
2022/09/02 06:34:31;;;;;;;7.93;2.50;;;;;;;15.27;53.79;100633.41;10152356;29;20040;-79
2022/09/02 06:39:36;;;;;;;5.10;1.80;;;;;;;15.60;53.11;100633.84;10171545;29;20097;-79
2022/09/02 06:44:41;;;;;;;2.70;1.58;;;;;;;15.78;52.76;100635.75;10157956;29;20048;-80
2022/09/02 06:49:44;;;;;;;4.45;1.75;;;;;;;16.09;52.80;100634.38;10145468;29;20047;-80
2022/09/02 06:54:47;;;;;;;4.78;2.10;;;;;;;16.43;51.86;100630.13;10192563;29;20167;-80
2022/09/02 06:59:52;;;;;;;2.75;1.77;;;;;;;16.80;50.89;100638.91;10166029;29;20048;-80
2022/09/02 07:05:09;;;;;;;6.45;1.60;;;;;;;17.06;50.38;100626.34;10167541;29;20071;-80
2022/09/02 07:10:14;;;;;;;3.45;1.50;;;;;;;17.36;49.77;100627.72;10145256;29;20059;-79
2022/09/02 07:15:23;;;;;;;1.80;1.10;;;;;;;17.48;48.75;100629.13;10163361;29;20054;-80
2022/09/02 07:20:27;;;;;;;3.05;1.02;;;;;;;17.83;48.47;100630.78;10144097;29;20478;-81
2022/09/02 07:25:34;;;;;;;1.77;1.17;;;;;;;17.53;47.72;100623.22;10145211;29;20048;-79
2022/09/02 07:30:41;;;;;;;6.32;1.35;;;;;;;18.06;46.73;100616.59;10134201;29;20060;-79
2022/09/02 07:35:51;;;;;;;6.63;1.23;;;;;;;18.35;46.63;100625.13;10148000;29;20058;-79
2022/09/02 07:40:56;;;;;;;4.88;1.30;;;;;;;18.16;46.73;100628.16;10173350;29;20048;-78
2022/09/02 07:46:04;;;;;;;2.03;1.00;;;;;;;18.48;45.62;100626.47;10146608;29;20421;-77
2022/09/02 07:51:08;;;;;;;5.88;1.77;;;;;;;18.97;45.73;100618.28;10150069;29;20095;-80
2022/09/02 07:56:13;;;;;;;4.57;1.25;;;;;;;19.00;44.54;100624.22;10145445;29;21163;-79
2022/09/02 08:01:19;;;;;;;2.25;1.30;;;;;;;19.64;44.52;100618.75;10137818;29;20143;-78
2022/09/02 08:06:27;;;;;;;3.80;1.33;;;;;;;19.32;43.85;100616.13;10132290;29;20054;-78
2022/09/02 08:11:38;;;;;;;4.60;1.30;;;;;;;20.06;42.64;100613.91;10169609;29;20047;-79
2022/09/02 08:16:43;;;;;;;3.80;0.88;;;;;;;20.61;41.83;100610.06;10158165;29;20135;-79
2022/09/02 08:21:45;;;;;;;2.60;1.25;;;;;;;20.34;41.59;100615.06;10152587;29;20052;-79
2022/09/02 08:26:48;;;;;;;1.75;1.20;;;;;;;20.57;41.03;100608.75;10151639;29;20047;-78
2022/09/02 08:31:52;;;;;;;3.42;1.35;;;;;;;20.94;40.51;100598.81;10142382;29;20090;-79
2022/09/02 08:36:56;;;;;;;1.98;1.40;;;;;;;21.56;40.24;100592.13;10153073;29;20090;-79
2022/09/02 08:42:08;;;;;;;3.47;1.30;;;;;;;21.75;39.51;100597.03;10147215;29;20056;-79
2022/09/02 08:47:21;;;;;;;5.67;1.77;;;;;;;22.02;38.83;100598.16;10169427;29;20050;-78
2022/09/02 08:52:31;;;;;;;1.83;1.17;;;;;;;22.10;38.85;100587.09;10159653;29;20131;-79
2022/09/02 08:57:35;;;;;;;2.03;1.23;;;;;;;22.38;38.84;100586.28;10163811;29;20047;-77
2022/09/02 09:02:56;;;;;;;2.58;1.05;;;;;;;22.60;37.62;100578.94;10153045;29;20127;-76
2022/09/02 09:08:07;;;;;;;5.47;1.13;;;;;;;22.55;37.77;100575.94;10170179;29;20645;-77
2022/09/02 09:13:45;;;;;;;3.00;1.30;;;;;;;22.46;37.13;100571.63;10170399;29;20064;-77
2022/09/02 09:18:57;;;;;;;5.50;1.90;;;;;;;22.78;37.25;100570.19;10149665;29;20187;-77
2022/09/02 09:24:03;;;;;;;6.63;1.10;;;;;;;22.66;37.14;100582.75;10160111;29;20064;-77
2022/09/02 09:29:07;;;;;;;4.80;1.20;;;;;;;23.21;36.11;100570.91;10154085;29;20079;-76
2022/09/02 09:34:12;;;;;;;2.55;1.30;;;;;;;23.28;35.96;100561.84;10165713;29;20099;-75
2022/09/02 09:39:21;;;;;;;3.60;1.55;;;;;;;22.97;36.16;100557.69;10172611;29;20063;-77
2022/09/02 09:44:39;;;;;;;2.83;1.20;;;;;;;23.74;35.52;100547.47;10155842;29;20052;-77
2022/09/02 09:49:43;;;;;;;5.32;1.10;;;;;;;24.01;34.75;100551.16;10153324;29;20071;-76
2022/09/02 09:54:46;;;;;;;4.90;1.20;;;;;;;24.34;34.17;100540.19;10156869;29;20529;-76
2022/09/02 09:59:54;;;;;;;2.45;1.20;;;;;;;23.95;34.38;100539.13;10143970;29;20131;-76
2022/09/02 10:05:16;;;;;;;1.95;1.10;;;;;;;23.87;34.62;100526.44;10147284;29;20052;-76
2022/09/02 10:10:22;;;;;;;4.20;1.45;;;;;;;24.44;34.31;100520.59;10147727;29;20088;-76
2022/09/02 10:15:34;;;;;;;1.88;1.15;;;;;;;24.53;33.67;100517.41;10154294;29;20075;-76
2022/09/02 10:20:50;;;;;;;2.75;1.20;;;;;;;24.80;33.13;100514.59;10148706;29;20071;-76
2022/09/02 10:26:24;;;;;;;1.00;0.93;;;;;;;25.19;32.69;100497.16;10137361;29;20134;-76
2022/09/02 10:31:35;;;;;;;1.30;1.10;;;;;;;26.17;31.47;100495.94;10160443;29;20048;-77
2022/09/02 10:36:57;;;;;;;1.85;1.17;;;;;;;25.86;32.26;100499.53;10159747;29;20538;-76
2022/09/02 10:42:06;;;;;;;;;;;;;;;26.17;32.05;100479.41;10159782;29;20083;-77
2022/09/02 10:47:17;;;;;;;1.48;1.08;;;;;;;26.46;30.34;100472.38;10152907;29;19933;-76
2022/09/02 10:52:37;;;;;;;3.20;1.00;;;;;;;26.49;28.60;100482.97;10158189;29;20052;-76
2022/09/02 10:57:48;;;;;;;1.10;1.00;;;;;;;26.90;28.28;100480.59;10152593;29;20048;-76
2022/09/02 11:02:55;;;;;;;1.90;0.98;;;;;;;27.74;27.51;100467.00;10145167;29;20406;-76
2022/09/02 11:08:08;;;;;;;3.55;1.00;;;;;;;27.99;26.62;100464.06;10148099;29;20059;-76
2022/09/02 11:13:18;;;;;;;1.73;1.00;;;;;;;28.63;26.34;100461.44;10162824;29;20522;-77
2022/09/02 11:18:27;;;;;;;1.17;1.05;;;;;;;29.74;25.82;100444.59;10162168;29;20043;-76
2022/09/02 11:23:38;;;;;;;1.42;0.90;;;;;;;29.88;24.08;100450.66;10159782;29;20075;-76
2022/09/02 11:28:48;;;;;;;2.17;0.90;;;;;;;29.75;24.52;100454.59;10135856;29;20122;-77
2022/09/02 11:33:58;;;;;;;4.13;1.20;;;;;;;29.54;24.51;100454.19;10149264;29;20096;-77
2022/09/02 11:39:08;;;;;;;1.92;1.40;;;;;;;29.97;24.80;100438.06;10156889;29;20478;-77
2022/09/02 11:44:45;;;;;;;1.80;1.10;;;;;;;30.76;23.14;100448.13;10157501;29;20443;-76
2022/09/02 11:50:23;;;;;;;0.95;0.90;;;;;;;30.55;23.42;100433.13;10155759;29;20544;-76
2022/09/02 11:55:33;;;;;;;3.78;1.45;;;;;;;29.59;24.11;100429.38;10147695;29;20601;-76
2022/09/02 12:01:01;;;;;;;1.70;1.05;;;;;;;30.46;23.25;100424.44;10165760;29;20127;-77
2022/09/02 12:06:12;;;;;;;1.20;1.08;;;;;;;30.56;23.17;100427.34;10137808;29;20055;-77
2022/09/02 12:11:38;;;;;;;3.07;1.00;;;;;;;30.99;22.34;100420.13;10153350;29;20044;-76
2022/09/02 12:16:44;;;;;;;3.67;1.50;;;;;;;30.55;22.78;100410.97;10154039;29;20116;-77
2022/09/02 12:22:22;;;;;;;2.33;1.65;;;;;;;29.91;23.64;100408.63;10166198;29;20242;-77
2022/09/02 12:27:29;;;;;;;5.22;1.00;;;;;;;29.68;23.67;100404.94;10140801;29;20047;-77
2022/09/02 12:33:03;;;;;;;3.13;1.30;;;;;;;29.53;23.18;100396.31;10153400;29;20150;-77
2022/09/02 12:38:41;;;;;;;0.88;0.80;;;;;;;31.06;22.98;100381.94;10143992;29;20051;-77
2022/09/02 12:43:56;;;;;;;1.85;1.15;;;;;;;33.71;20.29;100376.25;9989478;29;20053;-77
2022/09/02 12:49:05;;;;;;;0.88;0.82;;;;;;;33.62;21.03;100377.06;10121163;29;20056;-78
2022/09/02 12:54:08;;;;;;;2.67;1.23;;;;;;;34.59;20.69;100368.56;10152409;29;20079;-77
2022/09/02 12:59:26;;;;;;;1.92;1.10;;;;;;;36.59;18.90;100359.41;10152869;29;20199;-77
2022/09/02 13:04:38;;;;;;;5.05;1.20;;;;;;;34.56;19.40;100363.56;10130650;29;21233;-77
2022/09/02 13:09:59;;;;;;;4.25;1.10;;;;;;;30.46;22.74;100371.78;10170048;29;20091;-77
2022/09/02 13:15:22;;;;;;;1.40;1.20;;;;;;;28.19;25.47;100372.59;10112090;29;20051;-76
2022/09/02 13:20:50;;;;;;;1.20;1.10;;;;;;;26.45;27.85;100367.97;10142366;29;20056;-77
2022/09/02 13:26:21;;;;;;;3.28;1.00;;;;;;;27.56;27.29;100360.28;10146373;29;20059;-77
2022/09/02 13:31:59;;;;;;;1.60;1.30;;;;;;;27.37;27.65;100354.00;10156800;29;20413;-77
2022/09/02 13:37:02;;;;;;;3.22;1.35;;;;;;;26.66;28.11;100362.00;10128564;29;20138;-77
2022/09/02 13:42:14;;;;;;;1.33;1.15;;;;;;;25.25;28.93;100365.41;10143710;29;20072;-76
2022/09/02 13:47:21;;;;;;;1.27;1.15;;;;;;;25.26;29.29;100359.69;10144383;29;20048;-77
2022/09/02 13:52:24;;;;;;;2.20;1.23;;;;;;;25.55;29.46;100360.94;10150920;29;20132;-76
2022/09/02 13:57:56;;;;;;;2.38;1.23;;;;;;;25.34;29.54;100372.31;10145657;29;20547;-77
2022/09/02 14:03:05;;;;;;;5.97;1.45;;;;;;;24.95;29.53;100364.06;10152634;29;20135;-77
2022/09/02 14:08:13;;;;;;;4.10;1.38;;;;;;;25.52;29.62;100357.81;10150893;29;20528;-77
2022/09/02 14:13:17;;;;;;;1.20;1.10;;;;;;;26.19;28.30;100350.66;10156972;29;20050;-77
2022/09/02 14:18:24;;;;;;;1.25;1.15;;;;;;;25.92;28.77;100338.22;10159074;29;20071;-77
2022/09/02 14:23:28;;;;;;;1.33;1.23;;;;;;;25.68;28.89;100339.94;10167020;29;20131;-77
2022/09/02 14:28:33;;;;;;;4.07;1.30;;;;;;;27.45;27.30;100330.78;10159277;29;20184;-78
2022/09/02 14:33:43;;;;;;;4.70;1.38;;;;;;;25.96;28.51;100336.72;10153649;29;20246;-77
2022/09/02 14:38:53;;;;;;;3.50;0.95;;;;;;;26.55;27.82;100321.44;10170144;29;20115;-75
2022/09/02 14:43:58;;;;;;;4.47;1.35;;;;;;;27.16;27.18;100320.38;10154754;29;20115;-77
2022/09/02 14:49:05;;;;;;;3.67;1.17;;;;;;;25.56;29.15;100317.78;10148519;29;20103;-77
2022/09/02 14:54:08;;;;;;;2.33;1.10;;;;;;;26.14;28.03;100322.97;10152782;29;20127;-77
2022/09/02 14:59:11;;;;;;;2.60;1.60;;;;;;;25.80;28.31;100308.69;10133979;29;20063;-76
2022/09/02 15:04:15;;;;;;;1.20;1.10;;;;;;;24.64;29.72;100320.09;10152281;29;20059;-76
2022/09/02 15:09:18;;;;;;;2.08;1.10;;;;;;;23.90;30.44;100315.88;10147380;29;20123;-76
2022/09/02 15:14:21;;;;;;;2.08;1.45;;;;;;;24.21;30.36;100317.91;10150230;29;20532;-76
2022/09/02 15:19:25;;;;;;;4.22;1.30;;;;;;;24.49;30.13;100306.63;10149353;29;20472;-77
2022/09/02 15:24:28;;;;;;;3.67;1.25;;;;;;;24.15;30.23;100310.53;10132427;29;20146;-77
2022/09/02 15:29:31;;;;;;;2.20;1.30;;;;;;;24.64;30.15;100298.97;10155776;29;20823;-77
2022/09/02 15:34:35;;;;;;;1.48;1.13;;;;;;;24.62;29.42;100292.00;10149566;29;20719;-77
2022/09/02 15:39:38;;;;;;;3.42;1.02;;;;;;;25.12;29.08;100290.25;10159274;29;20098;-76
2022/09/02 15:44:41;;;;;;;2.38;0.90;;;;;;;25.44;27.94;100283.84;10154666;29;20058;-77
2022/09/02 15:49:45;;;;;;;3.22;1.30;;;;;;;25.86;27.98;100279.44;10161622;29;20052;-77
2022/09/02 15:54:48;;;;;;;3.92;1.08;;;;;;;26.34;27.92;100278.72;10146426;29;20086;-77
2022/09/02 15:59:51;;;;;;;3.80;1.30;;;;;;;25.73;27.69;100277.69;10145553;29;20119;-77
2022/09/02 16:04:56;;;;;;;3.15;1.13;;;;;;;26.19;27.55;100270.84;10146605;29;20187;-77
2022/09/02 16:09:58;;;;;;;2.25;1.45;;;;;;;25.66;27.94;100265.91;10162809;29;20122;-76
2022/09/02 16:15:06;;;;;;;1.80;0.90;;;;;;;25.62;28.10;100257.22;10146680;29;20056;-77
2022/09/02 16:20:11;;;;;;;1.42;1.00;;;;;;;26.23;27.43;100247.28;10163085;29;20490;-77
2022/09/02 16:25:14;;;;;;;1.38;0.93;;;;;;;25.98;27.70;100249.28;10127316;29;20056;-77
2022/09/02 16:30:17;;;;;;;1.80;1.02;;;;;;;25.74;27.79;100246.34;10145997;29;20052;-77
2022/09/02 16:35:21;;;;;;;3.22;1.00;;;;;;;25.95;27.81;100238.72;10149730;29;20481;-77
2022/09/02 16:40:24;;;;;;;2.28;0.90;;;;;;;25.75;28.16;100236.19;10153559;29;20138;-77
2022/09/02 16:45:27;;;;;;;1.58;0.80;;;;;;;25.50;28.24;100226.03;10159783;29;20087;-78
2022/09/02 16:50:31;;;;;;;2.38;1.10;;;;;;;25.66;28.56;100229.31;10157173;29;20072;-78
2022/09/02 16:55:34;;;;;;;5.15;1.05;;;;;;;24.49;29.17;100219.66;10172100;29;20201;-78
2022/09/02 17:00:40;;;;;;;3.38;1.20;;;;;;;24.26;29.78;100213.81;10142014;29;20135;-78
2022/09/02 17:05:46;;;;;;;1.50;1.20;;;;;;;24.31;29.43;100211.25;10144209;29;20437;-78
2022/09/02 17:10:49;;;;;;;3.65;1.60;;;;;;;24.43;29.58;100216.91;10144360;29;20059;-79
2022/09/02 17:15:52;;;;;;;2.03;1.27;;;;;;;24.16;29.95;100222.50;10153233;29;20877;-78
2022/09/02 17:21:16;;;;;;;2.63;1.27;;;;;;;23.74;30.92;100215.66;10153834;29;20058;-77
2022/09/02 17:26:21;;;;;;;1.40;1.05;;;;;;;23.42;31.37;100208.16;10184244;29;20048;-77
2022/09/02 17:31:26;;;;;;;9.82;1.45;;;;;;;22.86;31.76;100215.94;10151409;29;20064;-78
2022/09/02 17:36:32;;;;;;;2.42;1.35;;;;;;;22.62;32.28;100215.47;10145721;29;20063;-77
2022/09/02 17:46:55;;;;;;;4.55;1.20;;;;;;;22.12;33.16;100223.09;10149150;29;20116;-77
2022/09/02 17:52:00;;;;;;;3.00;1.20;;;;;;;21.88;33.96;100227.16;10165666;29;20131;-76
2022/09/02 17:57:09;;;;;;;2.67;1.40;;;;;;;21.80;34.26;100235.53;10159750;29;20168;-77
2022/09/02 18:02:33;;;;;;;2.88;1.85;;;;;;;21.63;34.72;100233.09;10178409;29;20414;-77
2022/09/02 18:07:43;;;;;;;3.03;1.60;;;;;;;21.55;35.04;100235.16;10145202;29;20193;-78
2022/09/02 18:12:46;;;;;;;2.00;1.40;;;;;;;21.47;35.49;100233.41;10178226;29;20107;-77
2022/09/02 18:17:52;;;;;;;3.40;2.40;;;;;;;21.38;35.34;100231.88;10153625;29;20461;-78
2022/09/02 18:23:19;;;;;;;3.33;1.83;;;;;;;21.32;35.58;100229.97;10139973;29;20088;-78
2022/09/02 18:28:33;;;;;;;1.73;1.40;;;;;;;21.20;35.56;100241.44;10166984;29;20071;-78
2022/09/02 18:33:52;;;;;;;1.65;1.15;;;;;;;21.01;35.96;100242.06;10130083;29;20600;-78
2022/09/02 18:39:14;;;;;;;2.80;1.20;;;;;;;20.95;36.07;100243.69;10118918;29;20063;-77
2022/09/02 18:44:32;;;;;;;3.40;1.40;;;;;;;20.88;36.11;100250.13;10148657;29;20259;-77
2022/09/02 18:49:38;;;;;;;2.47;1.73;;;;;;;20.76;36.17;100247.94;10134273;29;20107;-78
2022/09/02 18:54:49;;;;;;;2.58;1.20;;;;;;;20.69;36.31;100257.06;10145379;29;20055;-78
2022/09/02 19:00:00;;;;;;;5.13;1.13;;;;;;;20.48;36.33;100253.28;10160233;29;20059;-78
2022/09/02 19:05:06;;;;;;;2.00;1.13;;;;;;;20.29;36.71;100249.25;10136037;29;20135;-76
2022/09/02 19:10:12;;;;;;;1.33;1.17;;;;;;;20.09;37.01;100257.19;10163808;29;20056;-78
2022/09/02 19:15:15;;;;;;;5.40;1.48;;;;;;;19.94;37.32;100275.44;10171437;29;20047;-78
2022/09/02 19:20:19;;;;;;;2.95;1.40;;;;;;;19.86;37.51;100270.94;10149431;29;20059;-77
2022/09/02 19:25:26;;;;;;;2.60;1.10;;;;;;;19.74;37.79;100268.84;10149928;29;20239;-78
2022/09/02 19:30:34;;;;;;;2.35;1.40;;;;;;;19.61;37.81;100274.94;10157723;29;20044;-77
2022/09/02 19:35:45;;;;;;;2.42;0.90;;;;;;;19.49;38.11;100281.84;10137045;29;20056;-78
2022/09/02 19:40:49;;;;;;;2.60;1.02;;;;;;;19.46;38.16;100274.91;10147102;29;20079;-77
2022/09/02 19:45:52;;;;;;;2.00;0.90;;;;;;;19.37;38.26;100282.31;10145574;29;20081;-76
2022/09/02 19:50:55;;;;;;;5.20;1.30;;;;;;;19.17;38.64;100273.81;10141375;29;20139;-77
2022/09/02 19:56:00;;;;;;;2.40;1.10;;;;;;;19.11;38.52;100269.06;10137087;29;20473;-77
2022/09/02 20:01:04;;;;;;;2.88;1.02;;;;;;;19.02;38.29;100281.91;10152389;29;20091;-76
2022/09/02 20:06:07;;;;;;;2.13;1.15;;;;;;;18.96;38.69;100288.09;10133605;29;20095;-77
2022/09/02 20:11:11;;;;;;;2.65;1.35;;;;;;;18.88;38.69;100292.75;10172346;29;20146;-77
2022/09/02 20:16:18;;;;;;;4.00;1.50;;;;;;;18.77;38.76;100289.38;10167608;29;20055;-76
2022/09/02 20:21:23;;;;;;;3.08;1.73;;;;;;;18.63;38.96;100300.19;10138447;29;20072;-79
2022/09/02 20:26:47;;;;;;;2.15;1.25;;;;;;;18.51;39.27;100291.56;10137125;29;20055;-80
2022/09/02 20:32:06;;;;;;;3.95;1.13;;;;;;;18.54;39.22;100294.81;10113355;29;21377;-78
2022/09/02 20:37:21;;;;;;;2.42;1.08;;;;;;;18.40;39.47;100297.41;10130360;29;21391;-79
2022/09/02 20:42:47;;;;;;;3.83;1.15;;;;;;;18.16;40.12;100299.22;10136693;29;20568;-79
2022/09/02 20:48:04;;;;;;;2.38;0.85;;;;;;;18.17;39.98;100305.50;10138751;29;20048;-78
2022/09/02 20:53:24;;;;;;;3.72;1.05;;;;;;;18.16;39.68;100301.09;10149388;29;20162;-77
2022/09/02 20:58:39;;;;;;;3.35;1.00;;;;;;;18.16;39.78;100301.09;10155895;29;20059;-77
2022/09/02 21:03:51;;;;;;;3.28;1.00;;;;;;;17.93;40.18;100299.94;10135157;29;20174;-79
2022/09/02 21:09:00;;;;;;;2.92;0.80;;;;;;;17.83;40.15;100298.47;10143404;29;20175;-78
2022/09/02 21:14:12;;;;;;;6.97;1.30;;;;;;;17.87;39.98;100297.91;10148364;29;20052;-79
2022/09/02 21:19:20;;;;;;;1.00;0.80;;;;;;;17.68;40.23;100291.00;10151562;29;20115;-78
2022/09/02 21:24:31;;;;;;;0.90;0.80;;;;;;;17.80;39.87;100286.06;10159812;29;20051;-78
2022/09/02 21:29:45;;;;;;;3.53;0.50;;;;;;;17.84;39.88;100284.69;10154950;29;20048;-78
2022/09/02 21:34:53;;;;;;;1.60;0.70;;;;;;;17.63;40.41;100276.25;10153491;29;20051;-79
2022/09/02 21:40:03;;;;;;;2.58;0.70;;;;;;;17.57;40.39;100282.38;10154020;29;20051;-78
2022/09/02 21:45:18;;;;;;;4.13;0.73;;;;;;;17.69;40.21;100283.72;10162717;29;20122;-78
2022/09/02 21:50:26;;;;;;;1.35;0.77;;;;;;;17.66;40.12;100287.63;10153203;29;20051;-79
2022/09/02 21:55:53;;;;;;;8.43;0.68;;;;;;;17.53;40.38;100289.19;10132074;29;20055;-78
2022/09/02 22:01:02;;;;;;;4.90;0.63;;;;;;;17.46;40.55;100294.44;10151516;29;20173;-78
2022/09/02 22:06:13;;;;;;;1.95;0.63;;;;;;;17.55;40.19;100289.84;10153976;29;20686;-77
2022/09/02 22:11:25;;;;;;;3.13;0.57;;;;;;;17.40;40.48;100287.00;10163905;29;20135;-78
2022/09/02 22:16:44;;;;;;;3.63;0.93;;;;;;;17.26;41.02;100291.25;10146790;29;20040;-79
2022/09/02 22:21:49;;;;;;;1.48;0.77;;;;;;;17.48;40.62;100290.53;10153743;29;20287;-78
2022/09/02 22:26:55;;;;;;;3.72;0.60;;;;;;;17.42;40.52;100283.09;10115937;29;20080;-78
2022/09/02 22:32:01;;;;;;;2.70;0.60;;;;;;;17.28;41.17;100278.34;10152650;29;20238;-78
2022/09/02 22:37:08;;;;;;;2.00;0.73;;;;;;;17.15;41.07;100286.16;10151994;29;20052;-78
2022/09/02 22:42:20;;;;;;;0.55;0.55;;;;;;;17.12;41.01;100279.16;10162588;29;21047;-79
2022/09/02 22:52:53;;;;;;;3.92;0.88;;;;;;;16.84;41.88;100267.81;10166282;29;20142;-78
2022/09/02 22:58:04;;;;;;;3.40;2.25;;;;;;;16.71;41.87;100260.16;10157384;29;20055;-78
2022/09/02 23:03:15;;;;;;;2.35;0.63;;;;;;;16.51;42.07;100258.75;10167825;29;20043;-79
2022/09/02 23:08:20;;;;;;;1.05;0.77;;;;;;;16.68;42.00;100260.47;10153080;29;20051;-79
2022/09/02 23:13:42;;;;;;;1.15;0.50;;;;;;;16.48;42.17;100259.94;10169162;29;20141;-78
2022/09/02 23:19:02;;;;;;;1.55;0.90;;;;;;;16.30;42.16;100262.75;10164238;29;20195;-78
2022/09/02 23:24:18;;;;;;;4.32;0.60;;;;;;;16.51;42.26;100256.91;10115051;29;20056;-78
2022/09/02 23:29:25;;;;;;;1.38;0.60;;;;;;;16.35;42.44;100246.84;10162228;29;20080;-78
2022/09/02 23:34:46;;;;;;;1.67;0.73;;;;;;;16.23;42.62;100250.00;10165958;29;20047;-78
2022/09/02 23:39:59;;;;;;;0.65;0.50;;;;;;;16.33;42.49;100243.47;10163664;29;20052;-78
2022/09/02 23:45:08;;;;;;;;;;;;;;;16.38;42.43;100242.97;10154275;29;20059;-78
2022/09/02 23:50:31;;;;;;;2.30;0.57;;;;;;;16.19;43.08;100241.34;10140580;29;20347;-78
2022/09/02 23:55:43;;;;;;;0.65;0.50;;;;;;;16.05;43.14;100234.72;10143376;29;20055;-78
